»·PEaware :: N757LN KMYF-KPSP

N757LN :: KMYF-KPSP

FLIGHT INFORMATION

Flight Status: Arrived
Operator: Privately registered:
United States
More flights under this callsign
Pilot: Vladimir N. (32432)
Aircraft: CESSNA 172 SKYHAWK
(C172)
More flights by this aircraft type
Origin: KMYF Montgomery
United States
Destination: KPSP Palm Springs Intl
United States
More flights between these airports :: More routes between these airports
Route: JLI V208 TRM
File this flight plan on PilotEdge
Remarks:
Altitude:
(Current/Filed)
9,000ft
Speed:
(Current/Filed)
120kts
Departed: 01-Dec-20 10:56 PM
Arrived: 01-Dec-20 11:52 PM
Distance/Time
Traveled:
68nm/0:55
Distance/Time
To Go:
Arrived

Flight Plot

Page will automatically refresh every two minutes.


Map Options




Map Legend


Flown Route
Filed Route
Departure Airport
Arrival Airport
Navaid (VOR, NDB)
Fix

Horizontal Profiles

Position Reports

Time Latitude Longitude Heading Altitude Ground
Speed
01-Dec-20 22:33 32.810969 -117.138761 0 418ft 0kts
01-Dec-20 22:34 32.810969 -117.138761 0 418ft 0kts
01-Dec-20 22:35 32.810969 -117.138761 0 422ft 0kts
01-Dec-20 22:36 32.810969 -117.138761 0 422ft 0kts
01-Dec-20 22:37 32.810969 -117.138761 0 422ft 0kts
01-Dec-20 22:38 32.810969 -117.138761 0 422ft 0kts
01-Dec-20 22:39 32.810969 -117.138761 0 422ft 0kts
01-Dec-20 22:40 32.810969 -117.138761 0 422ft 0kts
01-Dec-20 22:41 32.810969 -117.138761 0 422ft 0kts
01-Dec-20 22:42 32.810969 -117.138761 0 422ft 0kts
01-Dec-20 22:43 32.810969 -117.138761 0 422ft 0kts
01-Dec-20 22:44 32.810969 -117.138761 0 422ft 0kts
01-Dec-20 22:45 32.810969 -117.138761 0 422ft 0kts
01-Dec-20 22:46 32.810969 -117.138761 0 422ft 0kts
01-Dec-20 22:47 32.810969 -117.138761 0 422ft 0kts
01-Dec-20 22:48 32.810969 -117.138761 0 422ft 0kts
01-Dec-20 22:49 32.810969 -117.138761 0 422ft 0kts
01-Dec-20 22:50 32.810969 -117.138761 0 422ft 0kts
01-Dec-20 22:51 32.811646 -117.137940 20 423ft 19kts
01-Dec-20 22:52 32.811391 -117.133507 119 424ft 15kts
01-Dec-20 22:53 32.811890 -117.131550 28 425ft 0kts
01-Dec-20 22:54 32.812363 -117.131268 27 426ft 18kts
01-Dec-20 22:55 32.818213 -117.146279 282 792ft 68kts
01-Dec-20 22:56 32.822310 -117.171404 281 1519ft 80kts
01-Dec-20 22:57 32.826896 -117.197250 281 2285ft 79kts
01-Dec-20 22:58 32.831403 -117.222976 281 2963ft 83kts
01-Dec-20 22:59 32.853648 -117.230031 12 3499ft 92kts
01-Dec-20 23:00 32.876954 -117.224636 12 4277ft 77kts
01-Dec-20 23:01 32.897543 -117.219949 12 4876ft 81kts
01-Dec-20 23:02 32.921299 -117.214342 12 5392ft 91kts
01-Dec-20 23:03 32.931864 -117.190149 78 5896ft 94kts
01-Dec-20 23:04 32.939768 -117.160274 68 6397ft 94kts
01-Dec-20 23:05 32.949587 -117.131445 67 6896ft 92kts
01-Dec-20 23:06 32.959423 -117.103456 67 7394ft 90kts
01-Dec-20 23:08 32.968816 -117.076858 66 7887ft 84kts
01-Dec-20 23:09 32.977531 -117.052185 66 8373ft 75kts
01-Dec-20 23:10 32.986234 -117.028026 66 8729ft 88kts
01-Dec-20 23:11 32.996490 -116.998839 67 8995ft 103kts
01-Dec-20 23:12 33.008393 -116.964813 67 9001ft 115kts
01-Dec-20 23:13 33.020931 -116.929044 67 8998ft 117kts
01-Dec-20 23:14 33.033487 -116.893228 67 8998ft 117kts
01-Dec-20 23:15 33.045971 -116.857577 67 8997ft 116kts
01-Dec-20 23:16 33.058402 -116.822070 67 9000ft 116kts
01-Dec-20 23:17 33.070813 -116.786573 67 8998ft 115kts
01-Dec-20 23:18 33.083175 -116.751157 67 8998ft 115kts
01-Dec-20 23:19 33.095552 -116.715680 67 8998ft 115kts
01-Dec-20 23:20 33.107894 -116.680250 67 8997ft 116kts
01-Dec-20 23:21 33.120236 -116.644785 67 8987ft 115kts
01-Dec-20 23:22 33.132499 -116.609527 66 8989ft 113kts
01-Dec-20 23:23 33.148917 -116.578074 35 8983ft 117kts
01-Dec-20 23:23 33.171283 -116.559406 35 8978ft 115kts
01-Dec-20 23:25 33.201295 -116.533461 35 8979ft 114kts
01-Dec-20 23:25 33.222738 -116.514845 35 8978ft 113kts
01-Dec-20 23:26 33.248148 -116.492767 35 8982ft 113kts
01-Dec-20 23:27 33.273318 -116.470852 35 8985ft 114kts
01-Dec-20 23:28 33.299454 -116.448119 34 8977ft 111kts
01-Dec-20 23:29 33.325021 -116.425835 34 8981ft 110kts
01-Dec-20 23:30 33.350265 -116.403830 34 8983ft 112kts
01-Dec-20 23:31 33.375334 -116.381935 34 8984ft 110kts
01-Dec-20 23:32 33.400757 -116.359748 33 8979ft 112kts
01-Dec-20 23:33 33.425875 -116.337795 34 8979ft 112kts
01-Dec-20 23:34 33.450881 -116.315945 33 8971ft 105kts
01-Dec-20 23:35 33.475894 -116.294047 34 8981ft 117kts
01-Dec-20 23:36 33.502409 -116.270810 34 8972ft 114kts
01-Dec-20 23:37 33.528378 -116.248056 34 8745ft 123kts
01-Dec-20 23:38 33.557141 -116.224204 17 8245ft 128kts
01-Dec-20 23:39 33.582137 -116.243301 313 7303ft 105kts
01-Dec-20 23:40 33.601540 -116.270967 313 6301ft 109kts
01-Dec-20 23:41 33.621974 -116.298650 313 5300ft 112kts
01-Dec-20 23:42 33.642851 -116.326419 313 4307ft 117kts
01-Dec-20 23:43 33.664887 -116.355460 313 3958ft 108kts
01-Dec-20 23:44 33.684416 -116.381265 318 3961ft 102kts
01-Dec-20 23:46 33.710568 -116.404452 332 3932ft 96kts
01-Dec-20 23:46 33.730699 -116.417516 329 3683ft 99kts
01-Dec-20 23:47 33.753209 -116.438366 321 3113ft 111kts
01-Dec-20 23:48 33.778390 -116.460738 321 2166ft 115kts
01-Dec-20 23:49 33.800245 -116.481455 321 1012ft 82kts
01-Dec-20 23:50 33.816883 -116.496236 321 554ft 69kts
01-Dec-20 23:51 33.828074 -116.506275 320 433ft 23kts
01-Dec-20 23:52 33.827600 -116.507214 171 433ft 7kts
01-Dec-20 23:53 33.825154 -116.509497 177 430ft 0kts

Navigation Log

Ident Type
Flight plan parsing failed, navigation log unavailable